.
WxDataArchive / Data Records for 2009-01-26
2009-01-25 January 2009 2009-01-27

Data Records for Monday, 26 January 2009

Time	Temp	Chill	HIndex	Humid	Dewpt	 Wind 	HiWind	WindDir	Rain 	Barom 
-----	----	-----	------	-----	-----	------	------	-------	-----	----- 
00:00	8.3	8.3	8.3	65	-1.0	0	0	---	0.00	30.446 
00:05	8.3	8.3	8.3	65	-1.0	0	0	---	0.00	30.447 
00:10	8.3	8.3	8.3	65	-1.0	0	1	248	0.00	30.447 
00:15	8.1	8.1	8.1	65	-1.2	0	0	---	0.00	30.448 
00:20	8.1	8.1	8.1	66	-0.9	0	0	---	0.00	30.451 
00:25	8.3	8.3	8.3	66	-0.7	0	0	---	0.00	30.447 
00:30	8.4	8.4	8.4	66	-0.6	0	1	248	0.00	30.447 
00:35	8.6	8.6	8.6	66	-0.4	0	1	248	0.00	30.450 
00:40	8.6	8.6	8.6	65	-0.7	0	1	248	0.00	30.448 
00:45	8.8	8.8	8.8	64	-0.9	0	1	248	0.00	30.445 
00:50	8.8	8.8	8.8	64	-0.9	0	1	248	0.00	30.445 
00:55	8.8	8.8	8.8	63	-1.2	0	1	248	0.00	30.454 
01:00	8.8	8.8	8.8	62	-1.5	0	1	248	0.00	30.450 
01:05	8.8	8.8	8.8	61	-1.9	0	1	248	0.00	30.451 
01:10	9.0	9.0	9.0	61	-1.7	0	1	248	0.00	30.451 
01:15	9.0	9.0	9.0	61	-1.7	0	1	248	0.00	30.457 
01:20	9.0	9.0	9.0	61	-1.7	0	1	248	0.00	30.459 
01:25	9.2	9.2	9.2	61	-1.5	0	1	248	0.00	30.461 
01:30	9.2	9.2	9.2	61	-1.5	0	0	---	0.00	30.457 
01:35	9.0	9.0	9.0	61	-1.7	0	0	---	0.00	30.459 
01:40	8.8	8.8	8.8	61	-1.9	0	1	248	0.00	30.459 
01:45	8.8	8.8	8.8	61	-1.9	0	0	---	0.00	30.461 
01:50	8.6	8.6	8.6	61	-2.1	0	0	---	0.00	30.461 
01:55	8.4	8.4	8.4	61	-2.2	0	0	---	0.00	30.461 
02:00	8.1	8.1	8.1	61	-2.5	0	0	---	0.00	30.461 
02:05	7.9	7.9	7.9	62	-2.4	0	0	---	0.00	30.462 
02:10	7.6	7.6	7.6	62	-2.7	0	0	---	0.00	30.463 
02:15	7.4	7.4	7.4	63	-2.5	0	0	---	0.00	30.468 
02:20	7.4	7.4	7.4	63	-2.5	0	0	---	0.00	30.468 
02:25	7.2	7.2	7.2	64	-2.4	0	0	---	0.00	30.473 
02:30	7.0	7.0	7.0	64	-2.6	0	0	---	0.00	30.477 
02:35	7.2	7.2	7.2	64	-2.4	0	1	248	0.00	30.478 
02:40	7.2	7.2	7.2	65	-2.1	0	0	---	0.00	30.479 
02:45	7.4	7.4	7.4	65	-1.9	0	0	---	0.00	30.481 
02:50	7.4	7.4	7.4	64	-2.2	0	1	248	0.00	30.484 
02:55	7.6	7.6	7.6	64	-2.0	0	0	---	0.00	30.477 
03:00	7.6	7.6	7.6	64	-2.0	0	0	---	0.00	30.475 
03:05	7.7	7.7	7.7	63	-2.2	0	1	248	0.00	30.475 
03:10	7.7	7.7	7.7	63	-2.2	0	0	---	0.00	30.480 
03:15	7.9	7.9	7.9	64	-1.7	0	0	---	0.00	30.477 
03:20	7.9	7.9	7.9	64	-1.7	0	0	---	0.00	30.475 
03:25	8.1	8.1	8.1	64	-1.5	0	0	---	0.00	30.475 
03:30	8.3	8.3	8.3	63	-1.7	0	0	---	0.00	30.477 
03:35	8.3	8.3	8.3	63	-1.7	0	0	---	0.00	30.480 
03:40	8.4	8.4	8.4	64	-1.2	0	0	---	0.00	30.480 
03:45	8.4	8.4	8.4	63	-1.6	0	0	---	0.00	30.481 
03:50	8.3	8.3	8.3	64	-1.3	0	1	248	0.00	30.479 
03:55	8.3	8.3	8.3	64	-1.3	0	0	---	0.00	30.476 
04:00	8.3	8.3	8.3	64	-1.3	0	0	---	0.00	30.476 
04:05	8.3	8.3	8.3	65	-1.0	0	1	248	0.00	30.476 
04:10	8.4	8.4	8.4	65	-0.9	0	0	---	0.00	30.475 
04:15	8.6	8.6	8.6	64	-1.0	0	1	248	0.00	30.476 
04:20	8.6	8.6	8.6	64	-1.0	0	0	---	0.00	30.472 
04:25	8.8	8.8	8.8	64	-0.9	0	0	---	0.00	30.474 
04:30	9.0	9.0	9.0	63	-1.0	0	1	248	0.00	30.470 
04:35	9.2	9.2	9.2	63	-0.8	0	1	248	0.00	30.467 
04:40	9.2	9.2	9.2	62	-1.1	0	1	248	0.00	30.469 
04:45	9.3	9.3	9.3	62	-1.0	0	1	248	0.00	30.472 
04:50	9.3	9.3	9.3	61	-1.4	0	2	248	0.00	30.475 
04:55	9.3	9.3	9.3	61	-1.4	0	2	248	0.00	30.480 
05:00	9.3	9.3	9.3	61	-1.4	0	1	248	0.00	30.479 
05:05	9.3	9.3	9.3	61	-1.4	0	1	248	0.00	30.486 
05:10	9.3	9.3	9.3	61	-1.4	0	1	248	0.00	30.483 
05:15	9.5	9.5	9.5	61	-1.2	0	1	248	0.00	30.485 
05:20	9.5	9.5	9.5	61	-1.2	0	1	248	0.00	30.483 
05:25	9.5	9.5	9.5	61	-1.2	0	1	248	0.00	30.486 
05:30	9.5	9.5	9.5	61	-1.2	0	1	248	0.00	30.485 
05:35	9.5	9.5	9.5	61	-1.2	0	2	248	0.00	30.487 
05:40	9.7	9.7	9.7	61	-1.0	0	1	248	0.00	30.480 
05:45	9.7	9.7	9.7	61	-1.0	0	2	248	0.00	30.481 
05:50	9.7	9.7	9.7	60	-1.4	0	1	248	0.00	30.484 
05:55	9.7	9.7	9.7	60	-1.4	0	1	248	0.00	30.480 
06:00	9.9	9.9	9.9	60	-1.2	0	1	248	0.00	30.486 
06:05	9.9	9.9	9.9	60	-1.2	0	0	---	0.00	30.486 
06:10	10.0	10.0	10.0	59	-1.4	0	2	248	0.00	30.492 
06:15	10.0	10.0	10.0	59	-1.4	0	1	248	0.00	30.498 
06:20	10.2	10.2	10.2	60	-0.9	0	2	248	0.00	30.495 
06:25	10.2	10.2	10.2	60	-0.9	0	1	248	0.00	30.493 
06:30	10.2	10.2	10.2	59	-1.2	0	1	248	0.00	30.492 
06:35	10.2	10.2	10.2	60	-0.9	0	1	248	0.00	30.491 
06:40	10.2	10.2	10.2	59	-1.2	0	1	248	0.00	30.492 
06:45	10.2	10.2	10.2	59	-1.2	0	0	---	0.00	30.493 
06:50	10.2	10.2	10.2	59	-1.2	0	0	---	0.00	30.493 
06:55	10.2	10.2	10.2	59	-1.2	0	1	248	0.00	30.492 
07:00	10.2	10.2	10.2	59	-1.2	0	1	248	0.00	30.492 
07:05	10.2	10.2	10.2	59	-1.2	0	1	248	0.00	30.494 
07:10	10.0	10.0	10.0	59	-1.4	0	1	248	0.00	30.500 
07:15	10.0	10.0	10.0	59	-1.4	0	1	248	0.00	30.505 
07:20	10.0	10.0	10.0	59	-1.4	0	0	---	0.00	30.498 
07:25	10.0	10.0	10.0	59	-1.4	0	1	248	0.00	30.502 
07:30	9.9	9.9	9.9	59	-1.5	0	1	248	0.00	30.497 
07:35	9.9	9.9	9.9	60	-1.2	0	0	---	0.00	30.493 
07:40	9.7	9.7	9.7	60	-1.4	0	0	---	0.00	30.500 
07:45	9.5	9.5	9.5	61	-1.2	0	0	---	0.00	30.502 
07:50	9.3	9.3	9.3	61	-1.4	0	0	---	0.00	30.507 
07:55	9.3	9.3	9.3	62	-1.0	0	0	---	0.00	30.509 
08:00	9.3	9.3	9.3	62	-1.0	0	1	248	0.00	30.511 
08:05	9.5	9.5	9.5	62	-0.9	0	1	248	0.00	30.514 
08:10	9.5	9.5	9.5	63	-0.5	0	0	---	0.00	30.507 
08:15	9.5	9.5	9.5	63	-0.5	0	0	---	0.00	30.505 
08:20	9.7	9.7	9.7	63	-0.3	0	0	---	0.00	30.510 
08:25	9.9	9.9	9.9	62	-0.5	0	0	---	0.00	30.512 
08:30	10.0	10.0	10.0	62	-0.4	0	0	---	0.00	30.511 
08:35	10.4	10.4	10.4	62	-0.0	0	0	---	0.00	30.512 
08:40	10.9	10.9	10.9	62	0.5	0	0	---	0.00	30.510 
08:45	11.2	11.2	11.2	60	0.1	0	0	---	0.00	30.515 
08:50	11.7	11.7	11.7	58	-0.2	0	2	248	0.00	30.517 
08:55	12.1	12.1	12.1	57	-0.2	1	2	248	0.00	30.522 
09:00	12.4	12.4	12.4	56	-0.3	0	1	248	0.00	30.523 
09:05	12.6	12.6	12.6	55	-0.5	0	1	248	0.00	30.521 
09:10	12.9	12.9	12.9	55	-0.2	0	1	248	0.00	30.514 
09:15	13.1	13.1	13.1	54	-0.4	0	0	---	0.00	30.515 
09:20	13.3	13.3	13.3	55	0.2	0	1	248	0.00	30.520 
09:25	13.6	13.6	13.6	55	0.5	0	1	248	0.00	30.522 
09:30	14.0	14.0	14.0	55	0.8	0	1	248	0.00	30.521 
09:35	14.3	14.3	14.3	55	1.1	0	1	248	0.00	30.523 
09:40	14.6	14.6	14.6	54	1.0	0	2	248	0.00	30.525 
09:45	14.9	14.9	14.9	55	1.7	0	2	248	0.00	30.528 
09:50	15.1	15.1	15.1	55	1.9	0	2	248	0.00	30.527 
09:55	15.4	15.4	15.4	55	2.2	0	2	248	0.00	30.526 
10:00	15.6	15.6	15.6	55	2.3	0	2	248	0.00	30.524 
10:05	15.9	15.9	15.9	55	2.6	0	1	248	0.00	30.523 
10:10	16.1	16.1	16.1	55	2.8	0	2	248	0.00	30.523 
10:15	16.2	16.2	16.2	54	2.5	0	1	248	0.00	30.524 
10:20	16.5	16.5	16.5	55	3.2	0	1	248	0.00	30.524 
10:25	16.7	16.7	16.7	55	3.4	0	1	248	0.00	30.524 
10:30	16.7	16.7	16.7	53	2.6	0	2	248	0.00	30.524 
10:35	16.9	16.9	16.9	54	3.2	0	1	248	0.00	30.521 
10:40	17.0	17.0	17.0	54	3.3	0	1	248	0.00	30.520 
10:45	17.2	17.2	17.2	53	3.0	1	3	248	0.00	30.522 
10:50	17.3	17.3	17.3	53	3.1	0	2	248	0.00	30.524 
10:55	17.5	17.5	17.5	53	3.3	0	2	248	0.00	30.526 
11:00	17.5	17.5	17.5	52	2.9	0	2	248	0.00	30.525 
11:05	17.8	17.8	17.8	52	3.2	0	2	248	0.00	30.523 
11:10	17.8	17.8	17.8	52	3.2	0	2	248	0.00	30.521 
11:15	18.0	18.0	18.0	52	3.4	0	2	292	0.00	30.519 
11:20	18.3	18.3	18.3	53	4.1	0	1	292	0.00	30.517 
11:25	18.3	18.3	18.3	53	4.1	0	2	292	0.00	30.517 
11:30	18.3	18.3	18.3	54	4.5	0	1	292	0.00	30.519 
11:35	18.4	18.4	18.4	53	4.2	0	1	292	0.00	30.517 
11:40	18.6	18.6	18.6	54	4.8	0	1	292	0.00	30.515 
11:45	19.1	19.1	19.1	52	4.4	0	1	292	0.00	30.514 
11:50	19.2	19.2	19.2	52	4.5	0	1	292	0.00	30.511 
11:55	19.4	19.4	19.4	52	4.7	0	2	292	0.00	30.507 
12:00	19.7	19.7	19.7	52	5.0	0	2	292	0.00	30.504 
12:05	20.0	20.0	20.0	51	4.8	0	1	292	0.00	30.506 
12:10	20.2	20.2	20.2	52	5.4	0	2	292	0.00	30.503 
12:15	20.5	20.5	20.5	52	5.7	0	1	292	0.00	30.504 
12:20	20.8	20.8	20.8	51	5.6	0	2	248	0.00	30.502 
12:25	20.6	20.6	20.6	52	5.8	0	1	248	0.00	30.500 
12:30	20.5	20.5	20.5	50	4.8	0	1	248	0.00	30.499 
12:35	20.3	20.3	20.3	52	5.5	1	3	248	0.00	30.500 
12:40	20.5	20.5	20.5	53	6.1	1	4	248	0.00	30.500 
12:45	20.6	20.6	20.6	53	6.2	0	2	248	0.00	30.501 
12:50	20.8	20.8	20.8	53	6.4	1	2	248	0.00	30.500 
12:55	20.5	20.5	20.5	53	6.1	1	3	248	0.00	30.504 
13:00	20.3	20.3	20.3	54	6.3	1	4	248	0.00	30.507 
13:05	20.3	20.3	20.3	54	6.3	0	1	248	0.00	30.504 
13:10	20.3	20.3	20.3	54	6.3	1	4	248	0.00	30.502 
13:15	20.3	20.3	20.3	54	6.3	1	3	248	0.00	30.500 
13:20	20.3	20.3	20.3	55	6.7	0	2	248	0.00	30.499 
13:25	20.3	20.3	20.3	55	6.7	0	2	248	0.00	30.497 
13:30	20.3	20.3	20.3	54	6.3	0	2	248	0.00	30.497 
13:35	20.2	20.2	20.2	54	6.2	0	1	292	0.00	30.491 
13:40	20.3	20.3	20.3	54	6.3	0	2	248	0.00	30.487 
13:45	20.5	20.5	20.5	54	6.5	0	2	248	0.00	30.487 
13:50	20.6	20.6	20.6	54	6.6	0	2	248	0.00	30.487 
13:55	20.6	20.6	20.6	55	7.0	0	1	248	0.00	30.486 
14:00	20.8	20.8	20.8	55	7.2	0	1	248	0.00	30.487 
14:05	20.8	20.8	20.8	54	6.8	0	3	248	0.00	30.486 
14:10	20.8	20.8	20.8	54	6.8	0	2	248	0.00	30.487 
14:15	20.5	20.5	20.5	54	6.5	0	2	270	0.00	30.492 
14:20	20.5	20.5	20.5	55	6.9	0	1	270	0.00	30.486 
14:25	20.5	20.5	20.5	55	6.9	0	2	270	0.00	30.485 
14:30	20.5	20.5	20.5	55	6.9	0	1	270	0.00	30.487 
14:35	20.5	20.5	20.5	55	6.9	0	1	270	0.00	30.485 
14:40	20.3	20.3	20.3	55	6.7	0	2	270	0.00	30.484 
14:45	20.3	20.3	20.3	55	6.7	0	2	270	0.00	30.484 
14:50	20.3	20.3	20.3	57	7.5	0	3	248	0.00	30.484 
14:55	20.3	20.3	20.3	55	6.7	1	2	248	0.00	30.484 
15:00	20.3	20.3	20.3	56	7.1	0	2	248	0.00	30.482 
15:05	20.5	20.5	20.5	56	7.3	0	2	248	0.00	30.484 
15:10	20.5	20.5	20.5	56	7.3	0	2	248	0.00	30.486 
15:15	20.5	20.5	20.5	57	7.7	0	2	292	0.00	30.484 
15:20	20.3	20.3	20.3	56	7.1	0	1	292	0.00	30.483 
15:25	20.3	20.3	20.3	56	7.1	0	2	248	0.00	30.472 
15:30	20.5	20.5	20.5	56	7.3	0	1	248	0.00	30.478 
15:35	20.6	20.6	20.6	56	7.4	0	1	248	0.00	30.477 
15:40	20.5	20.5	20.5	56	7.3	0	1	248	0.00	30.475 
15:45	20.2	20.2	20.2	57	7.4	0	2	0	0.00	30.476 
15:50	20.2	20.2	20.2	57	7.4	0	1	0	0.00	30.478 
15:55	20.2	20.2	20.2	57	7.4	0	1	0	0.00	30.481 
16:00	20.3	20.3	20.3	56	7.1	0	2	0	0.00	30.481 
16:05	20.3	20.3	20.3	56	7.1	1	3	248	0.00	30.484 
16:10	20.3	20.3	20.3	56	7.1	0	1	248	0.00	30.484 
16:15	20.3	20.3	20.3	56	7.1	1	3	248	0.00	30.484 
16:20	20.3	20.3	20.3	57	7.5	0	2	248	0.00	30.482 
16:25	20.3	20.3	20.3	57	7.5	0	2	248	0.00	30.484 
16:30	20.2	20.2	20.2	56	7.0	0	2	248	0.00	30.484 
16:35	20.2	20.2	20.2	57	7.4	0	1	248	0.00	30.488 
16:40	20.2	20.2	20.2	58	7.8	0	3	248	0.00	30.489 
16:45	20.0	20.0	20.0	57	7.2	0	2	248	0.00	30.488 
16:50	19.9	19.9	19.9	57	7.2	0	1	248	0.00	30.489 
16:55	19.7	19.7	19.7	57	7.0	0	1	248	0.00	30.487 
17:00	19.7	19.7	19.7	57	7.0	0	1	248	0.00	30.492 
17:05	19.7	19.7	19.7	56	6.6	0	1	248	0.00	30.487 
17:10	19.7	19.7	19.7	55	6.2	0	1	248	0.00	30.485 
17:15	19.5	19.5	19.5	55	6.0	0	2	248	0.00	30.489 
17:20	19.4	19.4	19.4	55	5.9	0	1	248	0.00	30.487 
17:25	19.4	19.4	19.4	56	6.3	0	1	248	0.00	30.495 
17:30	19.4	19.4	19.4	56	6.3	0	1	248	0.00	30.495 
17:35	19.4	19.4	19.4	57	6.7	0	2	248	0.00	30.496 
17:40	19.2	19.2	19.2	57	6.5	0	1	248	0.00	30.496 
17:45	19.2	19.2	19.2	57	6.5	0	1	248	0.00	30.495 
17:50	19.2	19.2	19.2	57	6.5	0	3	248	0.00	30.501 
17:55	19.2	19.2	19.2	58	6.9	0	1	248	0.00	30.501 
18:00	19.1	19.1	19.1	57	6.4	0	1	248	0.00	30.500 
18:05	19.1	19.1	19.1	57	6.4	0	1	248	0.00	30.501 
18:10	18.9	18.9	18.9	57	6.2	0	2	248	0.00	30.500 
18:15	18.9	18.9	18.9	57	6.2	0	1	248	0.00	30.501 
18:20	18.9	18.9	18.9	57	6.2	0	1	248	0.00	30.500 
18:25	18.9	18.9	18.9	59	7.0	0	1	248	0.00	30.505 
18:30	18.9	18.9	18.9	60	7.3	0	2	248	0.00	30.516 
18:35	18.9	18.9	18.9	62	8.1	1	2	248	0.00	30.515 
18:40	18.9	18.9	18.9	64	8.8	1	3	248	0.00	30.514 
18:45	18.8	18.8	18.8	65	9.0	0	3	248	0.00	30.508 
18:50	18.8	18.8	18.8	65	9.0	0	1	248	0.00	30.508 
18:55	18.6	18.6	18.6	66	9.2	0	1	248	0.00	30.507 
19:00	18.6	18.6	18.6	67	9.5	0	1	248	0.00	30.507 
19:05	18.6	18.6	18.6	66	9.2	0	2	248	0.00	30.506 
19:10	18.4	18.4	18.4	67	9.3	0	0	---	0.00	30.505 
19:15	18.4	18.4	18.4	67	9.3	0	1	248	0.00	30.502 
19:20	18.4	18.4	18.4	68	9.6	0	0	---	0.00	30.497 
19:25	18.4	18.4	18.4	68	9.6	0	1	248	0.00	30.500 
19:30	18.4	18.4	18.4	68	9.6	0	1	248	0.00	30.498 
19:35	18.3	18.3	18.3	68	9.5	0	1	248	0.00	30.500 
19:40	18.3	18.3	18.3	68	9.5	0	1	248	0.00	30.499 
19:45	18.3	18.3	18.3	68	9.5	0	1	248	0.00	30.499 
19:50	18.3	18.3	18.3	68	9.5	0	2	248	0.00	30.497 
19:55	18.3	18.3	18.3	67	9.2	0	2	248	0.00	30.499 
20:00	18.3	18.3	18.3	67	9.2	0	1	248	0.00	30.503 
20:05	18.3	18.3	18.3	67	9.2	0	1	248	0.00	30.498 
20:10	18.3	18.3	18.3	66	8.9	0	2	248	0.00	30.498 
20:15	18.3	18.3	18.3	66	8.9	0	0	---	0.00	30.493 
20:20	18.3	18.3	18.3	66	8.9	0	0	---	0.00	30.494 
20:25	18.3	18.3	18.3	66	8.9	0	1	315	0.00	30.492 
20:30	18.3	18.3	18.3	65	8.5	0	1	315	0.00	30.487 
20:35	18.1	18.1	18.1	65	8.3	0	1	315	0.00	30.492 
20:40	18.1	18.1	18.1	64	8.0	0	1	315	0.00	30.490 
20:45	18.1	18.1	18.1	64	8.0	0	1	315	0.00	30.494 
20:50	18.1	18.1	18.1	63	7.7	0	0	---	0.00	30.490 
20:55	18.1	18.1	18.1	62	7.3	0	2	315	0.00	30.496 
21:00	18.1	18.1	18.1	62	7.3	0	1	315	0.00	30.497 
21:05	18.1	18.1	18.1	62	7.3	0	1	315	0.00	30.495 
21:10	18.1	18.1	18.1	62	7.3	0	1	315	0.00	30.494 
21:15	18.1	18.1	18.1	62	7.3	0	0	---	0.00	30.486 
21:20	18.1	18.1	18.1	62	7.3	0	1	315	0.00	30.483 
21:25	18.1	18.1	18.1	62	7.3	0	1	315	0.00	30.488 
21:30	18.1	18.1	18.1	62	7.3	0	1	315	0.00	30.494 
21:35	18.1	18.1	18.1	63	7.7	0	1	315	0.00	30.495 
21:40	18.1	18.1	18.1	62	7.3	0	1	315	0.00	30.495 
21:45	18.1	18.1	18.1	62	7.3	0	1	315	0.00	30.497 
21:50	18.1	18.1	18.1	62	7.3	0	1	315	0.00	30.497 
21:55	18.1	18.1	18.1	62	7.3	0	1	315	0.00	30.504 
22:00	18.0	18.0	18.0	60	6.5	0	1	315	0.00	30.506 
22:05	18.0	18.0	18.0	60	6.5	0	1	315	0.00	30.505 
22:10	18.0	18.0	18.0	60	6.5	0	1	315	0.00	30.510 
22:15	18.0	18.0	18.0	60	6.5	0	1	315	0.00	30.510 
22:20	18.0	18.0	18.0	59	6.1	0	1	315	0.00	30.509 
22:25	18.0	18.0	18.0	59	6.1	0	1	315	0.00	30.508 
22:30	18.0	18.0	18.0	60	6.5	0	0	---	0.00	30.509 
22:35	17.8	17.8	17.8	59	5.9	0	1	315	0.00	30.505 
22:40	17.8	17.8	17.8	59	5.9	0	1	315	0.00	30.504 
22:45	17.8	17.8	17.8	59	5.9	0	0	---	0.00	30.501 
22:50	17.8	17.8	17.8	59	5.9	0	1	315	0.00	30.503 
22:55	17.8	17.8	17.8	60	6.3	0	1	315	0.00	30.499 
23:00	17.7	17.7	17.7	60	6.2	0	0	---	0.00	30.498 
23:05	17.7	17.7	17.7	61	6.6	0	1	315	0.00	30.497 
23:10	17.7	17.7	17.7	61	6.6	0	1	315	0.00	30.494 
23:15	17.7	17.7	17.7	61	6.6	0	1	315	0.00	30.494 
23:20	17.5	17.5	17.5	61	6.4	0	0	---	0.00	30.501 
23:25	17.5	17.5	17.5	61	6.4	0	1	315	0.00	30.496 
23:30	17.5	17.5	17.5	61	6.4	0	1	315	0.00	30.495 
23:35	17.5	17.5	17.5	61	6.4	0	1	315	0.00	30.502 
23:40	17.5	17.5	17.5	61	6.4	0	1	315	0.00	30.494 
23:45	17.5	17.5	17.5	61	6.4	0	1	315	0.00	30.491 
23:50	17.5	17.5	17.5	61	6.4	0	1	315	0.00	30.489 
23:55	17.5	17.5	17.5	62	6.7	0	1	315	0.00	30.489 

CoCoRaHS
IN-AL-39
A2 Web Hosting
Creative Commons License
GoDaddy
search engine by freefind advanced

loaded 2018-11-17 14:04:52 • last modified 2010-11-18 10:43:29
Privacy PolicyDisclaimer
• wx.awcolley.com is powered by PmWiki v.2002016 •
• all content (unless otherwise noted) © 2018 A W Colley